sensor_id;sensor_type;location;lat;lon;timestamp;pressure;altitude;pressure_sealevel;temperature;humidity
46714;BME280;32445;51.376;10.874;2022-10-15T00:00:05;98640.72;;;17.50;54.84
46714;BME280;32445;51.376;10.874;2022-10-15T00:03:06;98653.00;;;17.50;54.57
46714;BME280;32445;51.376;10.874;2022-10-15T00:06:09;98653.84;;;17.50;54.48
46714;BME280;32445;51.376;10.874;2022-10-15T00:09:10;98646.06;;;17.49;54.84
46714;BME280;32445;51.376;10.874;2022-10-15T00:12:10;98640.09;;;17.46;55.28
46714;BME280;32445;51.376;10.874;2022-10-15T00:15:11;98639.34;;;17.44;55.07
46714;BME280;32445;51.376;10.874;2022-10-15T00:18:11;98637.66;;;17.43;54.77
46714;BME280;32445;51.376;10.874;2022-10-15T00:21:14;98632.41;;;17.43;55.35
46714;BME280;32445;51.376;10.874;2022-10-15T00:24:14;98638.81;;;17.39;55.37
46714;BME280;32445;51.376;10.874;2022-10-15T00:27:15;98639.78;;;17.38;55.51
46714;BME280;32445;51.376;10.874;2022-10-15T00:30:15;98642.41;;;17.38;55.51
46714;BME280;32445;51.376;10.874;2022-10-15T00:33:15;98632.84;;;17.37;55.85
46714;BME280;32445;51.376;10.874;2022-10-15T00:36:21;98640.94;;;17.34;56.16
46714;BME280;32445;51.376;10.874;2022-10-15T00:39:22;98634.94;;;17.32;56.05
46714;BME280;32445;51.376;10.874;2022-10-15T00:42:22;98639.47;;;17.30;56.32
46714;BME280;32445;51.376;10.874;2022-10-15T00:45:23;98641.97;;;17.32;56.42
46714;BME280;32445;51.376;10.874;2022-10-15T00:48:23;98631.59;;;17.30;56.51
46714;BME280;32445;51.376;10.874;2022-10-15T00:51:27;98631.69;;;17.28;56.52
46714;BME280;32445;51.376;10.874;2022-10-15T00:54:33;98623.19;;;17.25;56.72
46714;BME280;32445;51.376;10.874;2022-10-15T00:57:36;98626.56;;;17.27;57.08
46714;BME280;32445;51.376;10.874;2022-10-15T01:00:37;98625.63;;;17.28;56.67
46714;BME280;32445;51.376;10.874;2022-10-15T01:03:38;98620.44;;;17.26;56.26
46714;BME280;32445;51.376;10.874;2022-10-15T01:06:38;98623.06;;;17.26;56.89
46714;BME280;32445;51.376;10.874;2022-10-15T01:09:39;98618.16;;;17.22;57.42
46714;BME280;32445;51.376;10.874;2022-10-15T01:15:58;98616.78;;;17.16;57.72
46714;BME280;32445;51.376;10.874;2022-10-15T01:19:06;98612.41;;;17.17;57.90
46714;BME280;32445;51.376;10.874;2022-10-15T01:25:34;98613.94;;;17.19;57.69
46714;BME280;32445;51.376;10.874;2022-10-15T01:29:04;98613.13;;;17.19;58.02
46714;BME280;32445;51.376;10.874;2022-10-15T01:35:30;98602.00;;;17.15;57.60
46714;BME280;32445;51.376;10.874;2022-10-15T01:38:36;98608.41;;;17.11;57.60
46714;BME280;32445;51.376;10.874;2022-10-15T01:41:46;98608.41;;;17.11;57.62
46714;BME280;32445;51.376;10.874;2022-10-15T01:44:53;98599.69;;;17.10;57.90
46714;BME280;32445;51.376;10.874;2022-10-15T01:47:59;98598.53;;;17.15;57.33
46714;BME280;32445;51.376;10.874;2022-10-15T01:51:04;98602.63;;;17.19;57.22
46714;BME280;32445;51.376;10.874;2022-10-15T01:54:10;98599.78;;;17.22;57.02
46714;BME280;32445;51.376;10.874;2022-10-15T01:57:12;98596.44;;;17.20;57.14
46714;BME280;32445;51.376;10.874;2022-10-15T02:00:14;98598.13;;;17.21;57.12
46714;BME280;32445;51.376;10.874;2022-10-15T02:03:14;98584.81;;;17.24;56.96
46714;BME280;32445;51.376;10.874;2022-10-15T02:06:26;98596.13;;;17.24;56.61
46714;BME280;32445;51.376;10.874;2022-10-15T02:09:36;98596.78;;;17.28;56.36
46714;BME280;32445;51.376;10.874;2022-10-15T02:19:20;98585.41;;;17.27;56.09
46714;BME280;32445;51.376;10.874;2022-10-15T02:22:31;98585.41;;;17.27;55.80
46714;BME280;32445;51.376;10.874;2022-10-15T02:25:34;98578.31;;;17.29;55.93
46714;BME280;32445;51.376;10.874;2022-10-15T02:28:39;98580.19;;;17.27;56.00
46714;BME280;32445;51.376;10.874;2022-10-15T02:31:42;98579.34;;;17.27;56.27
46714;BME280;32445;51.376;10.874;2022-10-15T02:34:44;98567.91;;;17.28;55.81
46714;BME280;32445;51.376;10.874;2022-10-15T02:37:49;98567.16;;;17.26;56.15
46714;BME280;32445;51.376;10.874;2022-10-15T02:40:51;98568.00;;;17.26;55.82
46714;BME280;32445;51.376;10.874;2022-10-15T02:43:52;98566.34;;;17.25;56.16
46714;BME280;32445;51.376;10.874;2022-10-15T02:46:53;98570.72;;;17.25;56.25
46714;BME280;32445;51.376;10.874;2022-10-15T02:49:54;98578.69;;;17.23;56.32
46714;BME280;32445;51.376;10.874;2022-10-15T02:52:54;98564.03;;;17.21;56.45
46714;BME280;32445;51.376;10.874;2022-10-15T02:55:54;98561.50;;;17.19;56.46
46714;BME280;32445;51.376;10.874;2022-10-15T02:58:55;98563.28;;;17.19;56.84
46714;BME280;32445;51.376;10.874;2022-10-15T03:01:55;98564.44;;;17.15;57.04
46714;BME280;32445;51.376;10.874;2022-10-15T03:04:56;98572.53;;;17.11;57.63
46714;BME280;32445;51.376;10.874;2022-10-15T03:07:58;98573.34;;;17.12;57.26
46714;BME280;32445;51.376;10.874;2022-10-15T03:10:59;98572.41;;;17.13;57.22
46714;BME280;32445;51.376;10.874;2022-10-15T03:14:01;98572.31;;;17.15;57.18
46714;BME280;32445;51.376;10.874;2022-10-15T03:17:01;98561.72;;;17.16;56.76
46714;BME280;32445;51.376;10.874;2022-10-15T03:20:01;98562.56;;;17.17;56.05
46714;BME280;32445;51.376;10.874;2022-10-15T03:23:02;98561.59;;;17.18;56.21
46714;BME280;32445;51.376;10.874;2022-10-15T03:26:02;98545.75;;;17.19;56.23
46714;BME280;32445;51.376;10.874;2022-10-15T03:29:02;98557.09;;;17.20;55.77
46714;BME280;32445;51.376;10.874;2022-10-15T03:32:03;98556.25;;;17.19;56.29
46714;BME280;32445;51.376;10.874;2022-10-15T03:35:04;98550.19;;;17.19;55.96
46714;BME280;32445;51.376;10.874;2022-10-15T03:38:05;98543.25;;;17.18;55.80
46714;BME280;32445;51.376;10.874;2022-10-15T03:41:06;98546.72;;;17.18;56.33
46714;BME280;32445;51.376;10.874;2022-10-15T03:44:07;98545.97;;;17.16;56.29
46714;BME280;32445;51.376;10.874;2022-10-15T03:47:07;98545.16;;;17.16;56.57
46714;BME280;32445;51.376;10.874;2022-10-15T03:50:08;98537.28;;;17.16;56.42
46714;BME280;32445;51.376;10.874;2022-10-15T03:53:08;98537.28;;;17.16;56.30
46714;BME280;32445;51.376;10.874;2022-10-15T03:56:09;98546.09;;;17.15;56.48
46714;BME280;32445;51.376;10.874;2022-10-15T03:59:09;98542.63;;;17.14;56.32
46714;BME280;32445;51.376;10.874;2022-10-15T04:02:09;98555.75;;;17.14;56.82
46714;BME280;32445;51.376;10.874;2022-10-15T04:05:10;98550.63;;;17.12;56.66
46714;BME280;32445;51.376;10.874;2022-10-15T04:08:11;98549.75;;;17.12;56.59
46714;BME280;32445;51.376;10.874;2022-10-15T04:11:11;98551.66;;;17.10;56.82
46714;BME280;32445;51.376;10.874;2022-10-15T04:14:11;98555.97;;;17.11;56.76
46714;BME280;32445;51.376;10.874;2022-10-15T04:17:12;98549.84;;;17.10;56.72
46714;BME280;32445;51.376;10.874;2022-10-15T04:20:12;98551.66;;;17.10;56.80
46714;BME280;32445;51.376;10.874;2022-10-15T04:23:13;98546.41;;;17.10;56.63
46714;BME280;32445;51.376;10.874;2022-10-15T04:26:13;98548.09;;;17.11;56.93
46714;BME280;32445;51.376;10.874;2022-10-15T04:29:14;98548.31;;;17.08;56.74
46714;BME280;32445;51.376;10.874;2022-10-15T04:32:14;98548.19;;;17.09;57.22
46714;BME280;32445;51.376;10.874;2022-10-15T04:35:15;98553.56;;;17.08;56.95
46714;BME280;32445;51.376;10.874;2022-10-15T04:38:15;98539.69;;;17.06;57.44
46714;BME280;32445;51.376;10.874;2022-10-15T04:41:15;98553.63;;;17.06;57.18
46714;BME280;32445;51.376;10.874;2022-10-15T04:44:16;98551.00;;;17.06;56.57
46714;BME280;32445;51.376;10.874;2022-10-15T04:47:16;98550.19;;;17.06;56.71
46714;BME280;32445;51.376;10.874;2022-10-15T04:50:16;98559.84;;;17.05;56.63
46714;BME280;32445;51.376;10.874;2022-10-15T04:53:17;98565.09;;;17.05;56.76
46714;BME280;32445;51.376;10.874;2022-10-15T04:56:19;98573.06;;;17.04;56.20
46714;BME280;32445;51.376;10.874;2022-10-15T04:59:19;98566.00;;;17.04;56.51
46714;BME280;32445;51.376;10.874;2022-10-15T05:02:20;98559.09;;;17.03;56.12
46714;BME280;32445;51.376;10.874;2022-10-15T05:05:20;98559.19;;;17.02;56.21
46714;BME280;32445;51.376;10.874;2022-10-15T05:08:21;98560.06;;;17.02;56.04
46714;BME280;32445;51.376;10.874;2022-10-15T05:11:23;98565.41;;;17.01;56.46
46714;BME280;32445;51.376;10.874;2022-10-15T05:14:24;98577.66;;;17.00;56.52
46714;BME280;32445;51.376;10.874;2022-10-15T05:17:24;98573.25;;;17.01;56.36
46714;BME280;32445;51.376;10.874;2022-10-15T05:20:25;98580.28;;;17.00;56.83
46714;BME280;32445;51.376;10.874;2022-10-15T05:23:25;98573.34;;;16.99;56.89
46714;BME280;32445;51.376;10.874;2022-10-15T05:26:27;98569.88;;;16.99;57.05
46714;BME280;32445;51.376;10.874;2022-10-15T05:29:28;98576.94;;;16.98;57.25
46714;BME280;32445;51.376;10.874;2022-10-15T05:32:29;98573.44;;;16.98;57.05
46714;BME280;32445;51.376;10.874;2022-10-15T05:35:29;98580.38;;;16.99;57.35
46714;BME280;32445;51.376;10.874;2022-10-15T05:38:29;98576.94;;;16.98;57.00
46714;BME280;32445;51.376;10.874;2022-10-15T05:41:30;98574.41;;;16.97;56.99
46714;BME280;32445;51.376;10.874;2022-10-15T05:44:30;98570.09;;;16.95;56.84
46714;BME280;32445;51.376;10.874;2022-10-15T05:47:30;98566.66;;;16.95;57.17
46714;BME280;32445;51.376;10.874;2022-10-15T05:50:31;98571.91;;;16.95;57.68
46714;BME280;32445;51.376;10.874;2022-10-15T05:53:32;98560.56;;;16.94;57.22
46714;BME280;32445;51.376;10.874;2022-10-15T05:56:32;98562.25;;;16.95;57.11
46714;BME280;32445;51.376;10.874;2022-10-15T05:59:32;98567.59;;;16.94;57.16
46714;BME280;32445;51.376;10.874;2022-10-15T06:02:32;98573.88;;;16.91;57.79
46714;BME280;32445;51.376;10.874;2022-10-15T06:05:33;98565.28;;;16.89;57.60
46714;BME280;32445;51.376;10.874;2022-10-15T06:08:33;98581.84;;;16.90;57.67
46714;BME280;32445;51.376;10.874;2022-10-15T06:11:35;98577.44;;;16.90;58.02
46714;BME280;32445;51.376;10.874;2022-10-15T06:14:35;98592.94;;;16.93;57.64
46714;BME280;32445;51.376;10.874;2022-10-15T06:17:35;98592.88;;;16.95;56.64
46714;BME280;32445;51.376;10.874;2022-10-15T06:20:36;98603.44;;;16.93;57.28
46714;BME280;32445;51.376;10.874;2022-10-15T06:23:36;98613.91;;;16.93;57.14
46714;BME280;32445;51.376;10.874;2022-10-15T06:26:37;98616.47;;;16.95;57.27
46714;BME280;32445;51.376;10.874;2022-10-15T06:29:37;98613.72;;;16.97;57.55
46714;BME280;32445;51.376;10.874;2022-10-15T06:32:37;98626.84;;;16.97;57.33
46714;BME280;32445;51.376;10.874;2022-10-15T06:35:38;98629.47;;;16.97;57.41
46714;BME280;32445;51.376;10.874;2022-10-15T06:38:39;98632.91;;;16.97;57.59
46714;BME280;32445;51.376;10.874;2022-10-15T06:41:43;98628.50;;;16.98;57.66
46714;BME280;32445;51.376;10.874;2022-10-15T06:44:43;98629.34;;;16.98;57.52
46714;BME280;32445;51.376;10.874;2022-10-15T06:47:43;98631.88;;;17.00;57.78
46714;BME280;32445;51.376;10.874;2022-10-15T06:50:44;98634.38;;;17.01;57.82
46714;BME280;32445;51.376;10.874;2022-10-15T06:53:44;98625.69;;;17.01;57.99
46714;BME280;32445;51.376;10.874;2022-10-15T06:56:45;98622.00;;;17.03;58.40
46714;BME280;32445;51.376;10.874;2022-10-15T06:59:45;98622.00;;;17.03;58.28
46714;BME280;32445;51.376;10.874;2022-10-15T07:02:45;98616.66;;;17.05;58.63
46714;BME280;32445;51.376;10.874;2022-10-15T07:05:46;98613.84;;;17.08;58.34
46714;BME280;32445;51.376;10.874;2022-10-15T07:08:46;98624.13;;;17.11;57.81
46714;BME280;32445;51.376;10.874;2022-10-15T07:11:46;98630.00;;;17.15;57.61
46714;BME280;32445;51.376;10.874;2022-10-15T07:14:47;98635.13;;;17.16;57.87
46714;BME280;32445;51.376;10.874;2022-10-15T07:17:49;98629.78;;;17.18;58.15
46714;BME280;32445;51.376;10.874;2022-10-15T07:20:50;98633.25;;;17.18;58.22
46714;BME280;32445;51.376;10.874;2022-10-15T07:23:50;98633.16;;;17.20;58.05
46714;BME280;32445;51.376;10.874;2022-10-15T07:26:51;98637.47;;;17.21;57.74
46714;BME280;32445;51.376;10.874;2022-10-15T07:29:51;98646.06;;;17.23;57.91
46714;BME280;32445;51.376;10.874;2022-10-15T07:32:51;98650.47;;;17.22;58.26
46714;BME280;32445;51.376;10.874;2022-10-15T07:35:52;98664.31;;;17.24;58.37
46714;BME280;32445;51.376;10.874;2022-10-15T07:38:52;98666.84;;;17.26;58.45
46714;BME280;32445;51.376;10.874;2022-10-15T07:41:52;98663.16;;;17.28;58.52
46714;BME280;32445;51.376;10.874;2022-10-15T07:44:53;98670.81;;;17.32;58.20
46714;BME280;32445;51.376;10.874;2022-10-15T07:47:54;98673.34;;;17.33;58.07
46714;BME280;32445;51.376;10.874;2022-10-15T07:50:55;98667.88;;;17.36;58.35
46714;BME280;32445;51.376;10.874;2022-10-15T07:53:56;98677.44;;;17.37;58.42
46714;BME280;32445;51.376;10.874;2022-10-15T07:56:56;98680.06;;;17.37;58.82
46714;BME280;32445;51.376;10.874;2022-10-15T07:59:57;98681.75;;;17.38;58.45
46714;BME280;32445;51.376;10.874;2022-10-15T08:02:57;98689.72;;;17.37;58.72
46714;BME280;32445;51.376;10.874;2022-10-15T08:06:05;98684.78;;;17.32;59.13
46714;BME280;32445;51.376;10.874;2022-10-15T08:09:06;98686.25;;;17.36;58.48
46714;BME280;32445;51.376;10.874;2022-10-15T08:12:06;98687.72;;;17.40;58.43
46714;BME280;32445;51.376;10.874;2022-10-15T08:15:07;98690.88;;;17.45;58.44
46714;BME280;32445;51.376;10.874;2022-10-15T08:18:08;98690.88;;;17.45;58.23
46714;BME280;32445;51.376;10.874;2022-10-15T08:21:09;98695.94;;;17.49;58.58
46714;BME280;32445;51.376;10.874;2022-10-15T08:24:10;98696.53;;;17.52;58.87
46714;BME280;32445;51.376;10.874;2022-10-15T08:27:11;98704.03;;;17.58;59.04
46714;BME280;32445;51.376;10.874;2022-10-15T08:30:11;98700.97;;;17.64;58.78
46714;BME280;32445;51.376;10.874;2022-10-15T08:33:11;98712.63;;;17.73;58.70
46714;BME280;32445;51.376;10.874;2022-10-15T08:36:12;98706.09;;;17.79;58.65
46714;BME280;32445;51.376;10.874;2022-10-15T08:39:12;98713.97;;;17.79;59.42
46714;BME280;32445;51.376;10.874;2022-10-15T08:42:19;98711.34;;;17.79;59.33
46714;BME280;32445;51.376;10.874;2022-10-15T08:45:29;98715.47;;;17.83;59.10
46714;BME280;32445;51.376;10.874;2022-10-15T08:51:40;98713.19;;;17.91;59.63
46714;BME280;32445;51.376;10.874;2022-10-15T08:54:44;98710.88;;;18.00;59.18
46714;BME280;32445;51.376;10.874;2022-10-15T08:58:01;98703.28;;;18.08;58.56
46714;BME280;32445;51.376;10.874;2022-10-15T09:01:06;98706.31;;;18.14;59.04
46714;BME280;32445;51.376;10.874;2022-10-15T09:07:19;98719.25;;;18.18;58.68
46714;BME280;32445;51.376;10.874;2022-10-15T09:10:33;98725.25;;;18.20;58.89
46714;BME280;32445;51.376;10.874;2022-10-15T09:13:41;98726.69;;;18.24;59.02
46714;BME280;32445;51.376;10.874;2022-10-15T09:16:52;98723.22;;;18.23;58.50
46714;BME280;32445;51.376;10.874;2022-10-15T09:19:56;98729.13;;;18.27;58.75
46714;BME280;32445;51.376;10.874;2022-10-15T09:22:57;98734.63;;;18.35;58.60
46714;BME280;32445;51.376;10.874;2022-10-15T09:26:26;98721.91;;;18.42;58.51
46714;BME280;32445;51.376;10.874;2022-10-15T09:33:17;98713.13;;;18.67;58.40
46714;BME280;32445;51.376;10.874;2022-10-15T09:36:34;98726.41;;;18.77;58.08
46714;BME280;32445;51.376;10.874;2022-10-15T09:39:42;98729.16;;;18.88;57.29
46714;BME280;32445;51.376;10.874;2022-10-15T09:42:48;98741.63;;;18.97;56.74
46714;BME280;32445;51.376;10.874;2022-10-15T09:45:50;98738.16;;;18.97;56.46
46714;BME280;32445;51.376;10.874;2022-10-15T09:49:06;98737.66;;;18.92;56.82
46714;BME280;32445;51.376;10.874;2022-10-15T09:55:51;98735.38;;;18.87;57.21
46714;BME280;32445;51.376;10.874;2022-10-15T09:58:55;98726.47;;;19.01;56.67
46714;BME280;32445;51.376;10.874;2022-10-15T10:01:57;98736.75;;;19.04;56.35
46714;BME280;32445;51.376;10.874;2022-10-15T10:05:18;98732.81;;;19.10;56.31
46714;BME280;32445;51.376;10.874;2022-10-15T10:08:22;98729.41;;;19.21;56.03
46714;BME280;32445;51.376;10.874;2022-10-15T10:11:25;98722.75;;;19.28;56.13
46714;BME280;32445;51.376;10.874;2022-10-15T10:14:30;98726.47;;;19.36;56.07
46714;BME280;32445;51.376;10.874;2022-10-15T10:17:31;98737.75;;;19.50;56.03
46714;BME280;32445;51.376;10.874;2022-10-15T10:20:33;98733.25;;;19.63;55.95
46714;BME280;32445;51.376;10.874;2022-10-15T10:23:37;98739.25;;;19.77;55.84
46714;BME280;32445;51.376;10.874;2022-10-15T10:26:38;98735.97;;;19.97;55.12
46714;BME280;32445;51.376;10.874;2022-10-15T10:29:38;98744.94;;;20.06;54.55
46714;BME280;32445;51.376;10.874;2022-10-15T10:32:40;98741.22;;;20.09;54.50
46714;BME280;32445;51.376;10.874;2022-10-15T10:35:45;98750.44;;;20.14;54.28
46714;BME280;32445;51.376;10.874;2022-10-15T10:42:24;98743.63;;;20.23;54.03
46714;BME280;32445;51.376;10.874;2022-10-15T10:45:25;98753.06;;;20.26;53.41
46714;BME280;32445;51.376;10.874;2022-10-15T10:48:44;98756.31;;;20.18;53.38
46714;BME280;32445;51.376;10.874;2022-10-15T10:51:48;98748.53;;;20.05;53.48
46714;BME280;32445;51.376;10.874;2022-10-15T10:58:21;98738.94;;;20.15;53.89
46714;BME280;32445;51.376;10.874;2022-10-15T11:01:22;98732.97;;;20.25;53.49
46714;BME280;32445;51.376;10.874;2022-10-15T11:04:28;98727.66;;;20.36;53.29
46714;BME280;32445;51.376;10.874;2022-10-15T11:11:16;98738.31;;;20.57;52.44
46714;BME280;32445;51.376;10.874;2022-10-15T11:21:50;98734.97;;;20.66;51.27
46714;BME280;32445;51.376;10.874;2022-10-15T11:35:12;98729.06;;;20.63;51.23
46714;BME280;32445;51.376;10.874;2022-10-15T11:38:26;98720.34;;;20.73;51.78
46714;BME280;32445;51.376;10.874;2022-10-15T11:44:49;98720.94;;;21.09;51.53
46714;BME280;32445;51.376;10.874;2022-10-15T11:47:56;98710.41;;;21.31;50.96
46714;BME280;32445;51.376;10.874;2022-10-15T11:51:09;98697.31;;;21.50;51.24
46714;BME280;32445;51.376;10.874;2022-10-15T11:54:23;98702.16;;;21.66;49.94
46714;BME280;32445;51.376;10.874;2022-10-15T11:57:25;98708.25;;;21.88;49.44
46714;BME280;32445;51.376;10.874;2022-10-15T12:00:34;98720.41;;;22.00;48.44
46714;BME280;32445;51.376;10.874;2022-10-15T12:03:48;98716.69;;;22.03;47.87
46714;BME280;32445;51.376;10.874;2022-10-15T12:06:52;98720.47;;;22.10;47.20
46714;BME280;32445;51.376;10.874;2022-10-15T12:09:59;98708.50;;;22.06;47.60
46714;BME280;32445;51.376;10.874;2022-10-15T12:19:59;98701.59;;;21.93;47.44
46714;BME280;32445;51.376;10.874;2022-10-15T12:23:25;98703.88;;;21.98;47.85
46714;BME280;32445;51.376;10.874;2022-10-15T12:26:27;98705.56;;;22.09;48.58
46714;BME280;32445;51.376;10.874;2022-10-15T12:29:28;98696.59;;;22.21;48.77
46714;BME280;32445;51.376;10.874;2022-10-15T12:35:37;98706.72;;;22.47;47.00
46714;BME280;32445;51.376;10.874;2022-10-15T12:38:39;98704.63;;;22.51;46.22
46714;BME280;32445;51.376;10.874;2022-10-15T12:41:44;98708.25;;;22.50;46.60
46714;BME280;32445;51.376;10.874;2022-10-15T12:44:47;98709.91;;;22.51;46.41
46714;BME280;32445;51.376;10.874;2022-10-15T12:54:35;98710.91;;;22.59;46.61
46714;BME280;32445;51.376;10.874;2022-10-15T13:00:39;98719.09;;;22.56;46.28
46714;BME280;32445;51.376;10.874;2022-10-15T13:06:49;98703.00;;;22.28;46.76
46714;BME280;32445;51.376;10.874;2022-10-15T13:09:50;98694.09;;;22.20;47.05
46714;BME280;32445;51.376;10.874;2022-10-15T13:12:55;98692.97;;;22.22;47.32
46714;BME280;32445;51.376;10.874;2022-10-15T13:16:07;98684.66;;;22.27;47.60
46714;BME280;32445;51.376;10.874;2022-10-15T13:19:15;98693.59;;;22.36;47.81
46714;BME280;32445;51.376;10.874;2022-10-15T13:22:21;98700.00;;;22.33;47.33
46714;BME280;32445;51.376;10.874;2022-10-15T13:25:22;98700.22;;;22.30;47.36
46714;BME280;32445;51.376;10.874;2022-10-15T13:28:28;98689.06;;;22.26;47.64
46714;BME280;32445;51.376;10.874;2022-10-15T13:31:31;98692.06;;;22.33;47.44
46714;BME280;32445;51.376;10.874;2022-10-15T13:34:35;98693.88;;;22.33;47.29
46714;BME280;32445;51.376;10.874;2022-10-15T13:37:36;98712.25;;;22.34;47.62
46714;BME280;32445;51.376;10.874;2022-10-15T13:40:37;98704.44;;;22.33;47.35
46714;BME280;32445;51.376;10.874;2022-10-15T13:43:37;98705.28;;;22.33;47.61
46714;BME280;32445;51.376;10.874;2022-10-15T13:46:38;98708.63;;;22.35;47.66
46714;BME280;32445;51.376;10.874;2022-10-15T13:49:38;98699.56;;;22.38;47.56
46714;BME280;32445;51.376;10.874;2022-10-15T13:52:48;98709.59;;;22.34;47.38
46714;BME280;32445;51.376;10.874;2022-10-15T13:55:53;98695.63;;;22.22;47.70
46714;BME280;32445;51.376;10.874;2022-10-15T13:58:54;98700.91;;;22.22;47.79
46714;BME280;32445;51.376;10.874;2022-10-15T14:02:02;98697.81;;;22.17;47.74
46714;BME280;32445;51.376;10.874;2022-10-15T14:05:15;98692.09;;;22.02;47.97
46714;BME280;32445;51.376;10.874;2022-10-15T14:08:19;98693.94;;;21.90;48.22
46714;BME280;32445;51.376;10.874;2022-10-15T14:11:20;98691.19;;;21.92;48.20
46714;BME280;32445;51.376;10.874;2022-10-15T14:14:34;98689.34;;;21.83;48.44
46714;BME280;32445;51.376;10.874;2022-10-15T14:17:35;98678.06;;;21.81;48.63
46714;BME280;32445;51.376;10.874;2022-10-15T14:20:35;98691.84;;;21.84;48.70
46714;BME280;32445;51.376;10.874;2022-10-15T14:23:36;98681.16;;;21.86;48.78
46714;BME280;32445;51.376;10.874;2022-10-15T14:26:36;98697.81;;;21.86;48.65
46714;BME280;32445;51.376;10.874;2022-10-15T14:29:46;98686.97;;;21.80;48.60
46714;BME280;32445;51.376;10.874;2022-10-15T14:32:48;98690.72;;;21.77;48.99
46714;BME280;32445;51.376;10.874;2022-10-15T14:36:06;98694.25;;;21.66;49.03
46714;BME280;32445;51.376;10.874;2022-10-15T14:39:33;98700.31;;;21.57;49.27
46714;BME280;32445;51.376;10.874;2022-10-15T14:42:37;98700.47;;;21.55;49.27
46714;BME280;32445;51.376;10.874;2022-10-15T14:45:54;98695.66;;;21.49;49.63
46714;BME280;32445;51.376;10.874;2022-10-15T14:48:55;98708.53;;;21.42;49.63
46714;BME280;32445;51.376;10.874;2022-10-15T14:52:09;98695.59;;;21.39;49.68
46714;BME280;32445;51.376;10.874;2022-10-15T14:55:54;98698.59;;;21.35;49.71
46714;BME280;32445;51.376;10.874;2022-10-15T14:58:54;98701.16;;;21.36;49.89
46714;BME280;32445;51.376;10.874;2022-10-15T15:01:59;98690.59;;;21.36;49.86
46714;BME280;32445;51.376;10.874;2022-10-15T15:05:13;98698.59;;;21.35;49.92
46714;BME280;32445;51.376;10.874;2022-10-15T15:08:16;98691.94;;;21.31;49.97
46714;BME280;32445;51.376;10.874;2022-10-15T15:11:20;98691.09;;;21.30;50.15
46714;BME280;32445;51.376;10.874;2022-10-15T15:14:24;98698.31;;;21.28;50.22
46714;BME280;32445;51.376;10.874;2022-10-15T15:17:26;98691.88;;;21.21;50.45
46714;BME280;32445;51.376;10.874;2022-10-15T15:20:28;98692.56;;;21.23;50.24
46714;BME280;32445;51.376;10.874;2022-10-15T15:23:28;98698.44;;;21.26;50.35
46714;BME280;32445;51.376;10.874;2022-10-15T15:26:29;98691.72;;;21.22;50.62
46714;BME280;32445;51.376;10.874;2022-10-15T15:29:29;98700.47;;;21.23;49.96
46714;BME280;32445;51.376;10.874;2022-10-15T15:32:29;98694.38;;;21.22;50.59
46714;BME280;32445;51.376;10.874;2022-10-15T15:35:40;98694.50;;;21.21;50.37
46714;BME280;32445;51.376;10.874;2022-10-15T15:38:43;98700.75;;;21.20;50.64
46714;BME280;32445;51.376;10.874;2022-10-15T15:41:43;98694.63;;;21.19;50.50
46714;BME280;32445;51.376;10.874;2022-10-15T15:44:44;98688.63;;;21.17;50.60
46714;BME280;32445;51.376;10.874;2022-10-15T15:47:44;98690.69;;;21.14;50.72
46714;BME280;32445;51.376;10.874;2022-10-15T15:50:45;98689.84;;;21.13;50.86
46714;BME280;32445;51.376;10.874;2022-10-15T15:53:46;98693.09;;;21.17;50.79
46714;BME280;32445;51.376;10.874;2022-10-15T15:56:46;98692.00;;;21.19;50.59
46714;BME280;32445;51.376;10.874;2022-10-15T15:59:47;98695.31;;;21.21;50.45
46714;BME280;32445;51.376;10.874;2022-10-15T16:02:47;98695.19;;;21.23;50.28
46714;BME280;32445;51.376;10.874;2022-10-15T16:05:47;98690.78;;;21.23;50.30
46714;BME280;32445;51.376;10.874;2022-10-15T16:08:50;98696.16;;;21.22;50.39
46714;BME280;32445;51.376;10.874;2022-10-15T16:11:52;98703.25;;;21.21;50.43
46714;BME280;32445;51.376;10.874;2022-10-15T16:14:52;98699.78;;;21.21;49.99
46714;BME280;32445;51.376;10.874;2022-10-15T16:17:53;98701.56;;;21.20;50.26
46714;BME280;32445;51.376;10.874;2022-10-15T16:20:54;98706.00;;;21.20;50.19
46714;BME280;32445;51.376;10.874;2022-10-15T16:23:54;98719.47;;;21.17;50.39
46714;BME280;32445;51.376;10.874;2022-10-15T16:26:54;98715.06;;;21.06;50.47
46714;BME280;32445;51.376;10.874;2022-10-15T16:29:55;98723.53;;;20.88;51.00
46714;BME280;32445;51.376;10.874;2022-10-15T16:32:55;98710.00;;;20.82;51.30
46714;BME280;32445;51.376;10.874;2022-10-15T16:35:56;98712.19;;;20.77;51.62
46714;BME280;32445;51.376;10.874;2022-10-15T16:38:56;98711.56;;;20.73;51.49
46714;BME280;32445;51.376;10.874;2022-10-15T16:41:57;98710.63;;;20.74;51.32
46714;BME280;32445;51.376;10.874;2022-10-15T16:44:57;98715.06;;;20.73;51.30
46714;BME280;32445;51.376;10.874;2022-10-15T16:47:57;98709.69;;;20.75;50.97
46714;BME280;32445;51.376;10.874;2022-10-15T16:50:59;98712.31;;;20.75;50.92
46714;BME280;32445;51.376;10.874;2022-10-15T16:54:00;98714.09;;;20.74;51.29
46714;BME280;32445;51.376;10.874;2022-10-15T16:57:00;98726.44;;;20.74;50.85
46714;BME280;32445;51.376;10.874;2022-10-15T17:00:01;98733.66;;;20.72;50.90
46714;BME280;32445;51.376;10.874;2022-10-15T17:03:01;98736.41;;;20.70;50.99
46714;BME280;32445;51.376;10.874;2022-10-15T17:06:04;98740.00;;;20.69;51.14
46714;BME280;32445;51.376;10.874;2022-10-15T17:09:05;98737.59;;;20.66;51.05
46714;BME280;32445;51.376;10.874;2022-10-15T17:12:05;98742.13;;;20.64;51.29
46714;BME280;32445;51.376;10.874;2022-10-15T17:15:06;98743.13;;;20.63;51.64
46714;BME280;32445;51.376;10.874;2022-10-15T17:18:07;98739.03;;;20.59;51.67
46714;BME280;32445;51.376;10.874;2022-10-15T17:21:10;98741.91;;;20.56;52.05